CSAV Rio Maipo — A8GH5 — position and weather

sailwx.info

Track history (hours):
 
Tides and Currents Weather Stations Pressure Air Temp Water Temp Dewpoint Dewpoint Depression Visibility Wind Speed Wind Dir Waves Ship Positions

CSAV Rio Maipo

Last reported at 2015-Jan-23 14:09 UTC. Time now 2015-Jan-26 12:32 UTC.
Position N 22°17' E 114°06'.

Length 210.9 m; beam 32.3 m; draft 12 m.

Type: Cargo ship. MMSI: 636091292.

Date/timePositionNaut miles runAvg speedWind from/ knotsBaromVisibWave heightAir tempDewpointWater temp
2015-Jan-23 14:09N 22°17' E 114°06'14 8.8
2015-Jan-23 12:34N 22°24' E 113°53'3 3.2
2015-Jan-23 11:33N 22°27' E 113°53'0 0.0
2015-Jan-23 10:32N 22°27' E 113°53'0 0.0
2015-Jan-23 09:33N 22°27' E 113°53'0 0.0
2015-Jan-23 08:25N 22°27' E 113°53'0 0.0
2015-Jan-23 07:31N 22°27' E 113°53'0 0.0
2015-Jan-23 06:31N 22°27' E 113°53'0 0.0
2015-Jan-23 05:25N 22°27' E 113°53'0 0.0
2015-Jan-23 04:33N 22°27' E 113°53'0 0.1
2015-Jan-23 03:30N 22°27' E 113°53'7 7.4
2015-Jan-23 02:33N 22°21' E 113°57'10 9.7
2015-Jan-23 01:33N 22°17' E 114°06'9 8.8
2015-Jan-23 00:29N 22°10' E 114°13'1010.7
2015-Jan-22 23:32N 22°09' E 114°24'12312.3
2015-Jan-22 13:33N 22°36' E 116°34'1312.4
2015-Jan-22 12:29N 22°42' E 116°47'1112.3
2015-Jan-22 11:33N 22°46' E 116°58'1312.6
2015-Jan-22 10:33N 22°51' E 117°11'1212.5
2015-Jan-22 09:33N 22°59' E 117°21'5513.1
2015-Jan-22 05:23N 23°42' E 117°58'1112.6
2015-Jan-22 04:33N 23°50' E 118°06'1512.1
2015-Jan-22 03:21N 24°01' E 118°16'8 9.9
2015-Jan-22 02:32N 24°09' E 118°17'1211.5
2015-Jan-22 01:32N 24°19' E 118°11'1111.6
2015-Jan-22 00:34N 24°27' E 118°03'4 3.6
2015-Jan-21 23:33N 24°31' E 118°05'0 0.0
2015-Jan-21 22:49N 24°31' E 118°05'0 0.0
2015-Jan-21 22:43N 24°31' E 118°05'0 0.0
2015-Jan-21 22:31N 24°31' E 118°05'0 0.0
2015-Jan-21 21:28N 24°31' E 118°05'0 0.0
2015-Jan-21 20:31N 24°31' E 118°05'0 0.0
2015-Jan-21 19:22N 24°31' E 118°05'0 0.0
2015-Jan-21 18:28N 24°31' E 118°05'0 0.0
2015-Jan-21 17:31N 24°31' E 118°05'0 0.0
2015-Jan-21 16:25N 24°31' E 118°05'3 3.2
2015-Jan-21 15:33N 24°28' E 118°04'9 8.8
2015-Jan-21 14:31N 24°21' E 118°10'2310.6
2015-Jan-21 12:19N 24°19' E 118°35'1011.0
2015-Jan-21 11:24N 24°25' E 118°45'1011.3
2015-Jan-21 10:32N 24°30' E 118°54'1211.9
2015-Jan-21 09:33N 24°37' E 119°04'1212.2
2015-Jan-21 08:33N 24°44' E 119°15'1212.4
2015-Jan-21 07:33N 24°50' E 119°27'1512.6
2015-Jan-21 06:24N 24°58' E 119°40'1212.9
2015-Jan-21 05:29N 25°05' E 119°51'28812.0
2015-Jan-20 05:28N 29°12' E 122°37'2411.4
2015-Jan-20 03:20N 29°35' E 122°46'5012.1
2015-Jan-19 23:11N 30°24' E 122°59'811.6
2015-Jan-19 22:31N 30°32' E 122°58'1412.6
2015-Jan-19 21:25N 30°46' E 122°55'3211.2
2015-Jan-19 18:33N 31°06' E 122°26'1414.0
2015-Jan-19 17:33N 31°11' E 122°10'1212.3
2015-Jan-19 16:33N 31°15' E 121°57'1110.9
2015-Jan-19 15:34N 31°19' E 121°45'5 4.7
2015-Jan-19 14:33N 31°20' E 121°40'0 0.0
2015-Jan-19 13:34N 31°20' E 121°40'0 0.0
2015-Jan-19 12:31N 31°20' E 121°40'0 0.0
2015-Jan-19 11:31N 31°20' E 121°40'0 0.0
2015-Jan-19 10:31N 31°20' E 121°40'0 0.0
2015-Jan-19 09:31N 31°20' E 121°40'0 0.0
2015-Jan-19 08:31N 31°20' E 121°40'0 0.0
2015-Jan-19 07:31N 31°20' E 121°40'0 0.0
2015-Jan-19 06:31N 31°20' E 121°40'0 0.0
2015-Jan-19 05:31N 31°20' E 121°40'0 0.0
2015-Jan-19 04:31N 31°20' E 121°40'0 0.0
2015-Jan-19 03:32N 31°20' E 121°40'4 4.0
2015-Jan-19 02:34N 31°19' E 121°44'1110.6
2015-Jan-19 01:34N 31°16' E 121°56'1212.4
2015-Jan-19 00:34N 31°12' E 122°09'1212.5
2015-Jan-18 23:33N 31°06' E 122°23'8 7.7
2015-Jan-18 22:34N 31°07' E 122°32'5 4.4
2015-Jan-18 21:20N 31°10' E 122°37'0 0.0
2015-Jan-18 20:32N 31°10' E 122°37'0 0.0
2015-Jan-18 19:08N 31°10' E 122°37'0 0.0
2015-Jan-18 18:32N 31°10' E 122°37'0 0.0
2015-Jan-18 13:05N 31°10' E 122°37'0 0.1
2015-Jan-18 12:29N 31°10' E 122°37'0 0.0
2015-Jan-18 09:14N 31°10' E 122°37'0 0.1
2015-Jan-18 08:29N 31°10' E 122°37'0 0.0
2015-Jan-18 07:17N 31°10' E 122°37'0 0.0
2015-Jan-18 06:11N 31°10' E 122°37'0 0.0
2015-Jan-17 22:18N 31°10' E 122°36'30410.5
2015-Jan-16 17:26N 35°58' E 120°37'1011.3
2015-Jan-16 16:33N 36°00' E 120°25'10 9.6
2015-Jan-16 15:30N 36°00' E 120°12'363 8.0
2015-Jan-14 18:19N 30°25' E 122°60'56 9.1
2015-Jan-14 12:13N 29°31' E 122°45'19 9.3
2015-Jan-14 10:11N 29°13' E 122°38'  
Track history (hours):
 
Tides and Currents Weather Stations Pressure Air Temp Water Temp Dewpoint Dewpoint Depression Visibility Wind Speed Wind Dir Waves Ship Positions

CSAV Rio Maipo

Last reported at 2015-Jan-23 14:09 UTC. Time now 2015-Jan-26 12:32 UTC.
Position N 22°17' E 114°06'.

Length 210.9 m; beam 32.3 m; draft 12 m.

Type: Cargo ship. MMSI: 636091292.

Date/timePositionNaut miles runAvg speedWind from/ knotsBaromVisibWave heightAir tempDewpointWater temp
2015-Jan-23 14:09N 22°17' E 114°06'14 8.8
2015-Jan-23 12:34N 22°24' E 113°53'3 3.2
2015-Jan-23 11:33N 22°27' E 113°53'0 0.0
2015-Jan-23 10:32N 22°27' E 113°53'0 0.0
2015-Jan-23 09:33N 22°27' E 113°53'0 0.0
2015-Jan-23 08:25N 22°27' E 113°53'0 0.0
2015-Jan-23 07:31N 22°27' E 113°53'0 0.0
2015-Jan-23 06:31N 22°27' E 113°53'0 0.0
2015-Jan-23 05:25N 22°27' E 113°53'0 0.0
2015-Jan-23 04:33N 22°27' E 113°53'0 0.1
2015-Jan-23 03:30N 22°27' E 113°53'7 7.4
2015-Jan-23 02:33N 22°21' E 113°57'10 9.7
2015-Jan-23 01:33N 22°17' E 114°06'9 8.8
2015-Jan-23 00:29N 22°10' E 114°13'1010.7
2015-Jan-22 23:32N 22°09' E 114°24'12312.3
2015-Jan-22 13:33N 22°36' E 116°34'1312.4
2015-Jan-22 12:29N 22°42' E 116°47'1112.3
2015-Jan-22 11:33N 22°46' E 116°58'1312.6
2015-Jan-22 10:33N 22°51' E 117°11'1212.5
2015-Jan-22 09:33N 22°59' E 117°21'5513.1
2015-Jan-22 05:23N 23°42' E 117°58'1112.6
2015-Jan-22 04:33N 23°50' E 118°06'1512.1
2015-Jan-22 03:21N 24°01' E 118°16'8 9.9
2015-Jan-22 02:32N 24°09' E 118°17'1211.5
2015-Jan-22 01:32N 24°19' E 118°11'1111.6
2015-Jan-22 00:34N 24°27' E 118°03'4 3.6
2015-Jan-21 23:33N 24°31' E 118°05'0 0.0
2015-Jan-21 22:49N 24°31' E 118°05'0 0.0
2015-Jan-21 22:43N 24°31' E 118°05'0 0.0
2015-Jan-21 22:31N 24°31' E 118°05'0 0.0
2015-Jan-21 21:28N 24°31' E 118°05'0 0.0
2015-Jan-21 20:31N 24°31' E 118°05'0 0.0
2015-Jan-21 19:22N 24°31' E 118°05'0 0.0
2015-Jan-21 18:28N 24°31' E 118°05'0 0.0
2015-Jan-21 17:31N 24°31' E 118°05'0 0.0
2015-Jan-21 16:25N 24°31' E 118°05'3 3.2
2015-Jan-21 15:33N 24°28' E 118°04'9 8.8
2015-Jan-21 14:31N 24°21' E 118°10'2310.6
2015-Jan-21 12:19N 24°19' E 118°35'1011.0
2015-Jan-21 11:24N 24°25' E 118°45'1011.3
2015-Jan-21 10:32N 24°30' E 118°54'1211.9
2015-Jan-21 09:33N 24°37' E 119°04'1212.2
2015-Jan-21 08:33N 24°44' E 119°15'1212.4
2015-Jan-21 07:33N 24°50' E 119°27'1512.6
2015-Jan-21 06:24N 24°58' E 119°40'1212.9
2015-Jan-21 05:29N 25°05' E 119°51'28812.0
2015-Jan-20 05:28N 29°12' E 122°37'2411.4
2015-Jan-20 03:20N 29°35' E 122°46'5012.1
2015-Jan-19 23:11N 30°24' E 122°59'811.6
2015-Jan-19 22:31N 30°32' E 122°58'1412.6
2015-Jan-19 21:25N 30°46' E 122°55'3211.2
2015-Jan-19 18:33N 31°06' E 122°26'1414.0
2015-Jan-19 17:33N 31°11' E 122°10'1212.3
2015-Jan-19 16:33N 31°15' E 121°57'1110.9
2015-Jan-19 15:34N 31°19' E 121°45'5 4.7
2015-Jan-19 14:33N 31°20' E 121°40'0 0.0
2015-Jan-19 13:34N 31°20' E 121°40'0 0.0
2015-Jan-19 12:31N 31°20' E 121°40'0 0.0
2015-Jan-19 11:31N 31°20' E 121°40'0 0.0
2015-Jan-19 10:31N 31°20' E 121°40'0 0.0
2015-Jan-19 09:31N 31°20' E 121°40'0 0.0
2015-Jan-19 08:31N 31°20' E 121°40'0 0.0
2015-Jan-19 07:31N 31°20' E 121°40'0 0.0
2015-Jan-19 06:31N 31°20' E 121°40'0 0.0
2015-Jan-19 05:31N 31°20' E 121°40'0 0.0
2015-Jan-19 04:31N 31°20' E 121°40'0 0.0
2015-Jan-19 03:32N 31°20' E 121°40'4 4.0
2015-Jan-19 02:34N 31°19' E 121°44'1110.6
2015-Jan-19 01:34N 31°16' E 121°56'1212.4
2015-Jan-19 00:34N 31°12' E 122°09'1212.5
2015-Jan-18 23:33N 31°06' E 122°23'8 7.7
2015-Jan-18 22:34N 31°07' E 122°32'5 4.4
2015-Jan-18 21:20N 31°10' E 122°37'0 0.0
2015-Jan-18 20:32N 31°10' E 122°37'0 0.0
2015-Jan-18 19:08N 31°10' E 122°37'0 0.0
2015-Jan-18 18:32N 31°10' E 122°37'0 0.0
2015-Jan-18 13:05N 31°10' E 122°37'0 0.1
2015-Jan-18 12:29N 31°10' E 122°37'0 0.0
2015-Jan-18 09:14N 31°10' E 122°37'0 0.1
2015-Jan-18 08:29N 31°10' E 122°37'0 0.0
2015-Jan-18 07:17N 31°10' E 122°37'0 0.0
2015-Jan-18 06:11N 31°10' E 122°37'0 0.0
2015-Jan-17 22:18N 31°10' E 122°36'30410.5
2015-Jan-16 17:26N 35°58' E 120°37'1011.3
2015-Jan-16 16:33N 36°00' E 120°25'10 9.6
2015-Jan-16 15:30N 36°00' E 120°12'363 8.0
2015-Jan-14 18:19N 30°25' E 122°60'56 9.1
2015-Jan-14 12:13N 29°31' E 122°45'19 9.3
2015-Jan-14 10:11N 29°13' E 122°38'  

Dump ship's entire track history